Time;durP1;ratioP1;P1;durP2;ratioP2;P2;SDS_P1;SDS_P2;PMS_P1;PMS_P2;Temp;Humidity;BMP_temperature;BMP_pressure;BME280_temperature;BME280_humidity;BME280_pressure;Samples;Min_cycle;Max_cycle;Signal;HPM_P1;HPM_P2
2021/12/19 00:17:23;;;;;;;27.95;13.43;;;0.70;99.90;;;;;;20843292;28;20053;-77
2021/12/19 00:27:24;;;;;;;36.15;14.50;;;0.70;99.90;;;;;;20836171;28;20553;-77
2021/12/19 00:37:24;;;;;;;35.47;14.38;;;0.80;99.90;;;;;;20836000;28;20071;-77
2021/12/19 00:47:25;;;;;;;37.65;14.73;;;0.90;99.90;;;;;;20834129;28;20401;-77
2021/12/19 00:57:26;;;;;;;45.55;16.75;;;0.80;99.90;;;;;;20834055;28;20040;-77
2021/12/19 01:07:27;;;;;;;38.17;14.25;;;0.70;99.90;;;;;;20832939;28;20037;-77
2021/12/19 01:17:28;;;;;;;39.60;14.82;;;0.70;99.90;;;;;;20831740;28;20025;-77
2021/12/19 01:27:29;;;;;;;38.60;15.23;;;0.70;99.90;;;;;;20830781;28;20036;-77
2021/12/19 01:37:30;;;;;;;41.60;15.50;;;0.60;99.90;;;;;;20834381;28;20040;-77
2021/12/19 01:47:31;;;;;;;40.58;16.13;;;0.60;99.90;;;;;;20828689;28;20504;-77
2021/12/19 01:57:34;;;;;;;34.28;14.25;;;0.70;99.90;;;;;;20827212;28;20025;-77
2021/12/19 02:07:35;;;;;;;38.88;15.50;;;0.70;99.90;;;;;;20827299;28;20038;-77
2021/12/19 02:17:36;;;;;;;39.50;15.88;;;0.70;99.90;;;;;;20855390;28;20098;-77
2021/12/19 02:27:38;;;;;;;36.63;14.60;;;0.50;99.90;;;;;;20852280;28;20033;-76
2021/12/19 02:57:59;;;;;;;37.50;14.00;;;0.80;99.90;;;;;;20831586;28;20039;-77
2021/12/19 03:08:03;;;;;;;39.80;14.60;;;0.80;99.90;;;;;;20897558;28;20037;-77
2021/12/19 03:18:12;;;;;;;38.97;14.55;;;0.80;99.90;;;;;;20903045;28;20036;-77
2021/12/19 03:28:14;;;;;;;39.45;15.32;;;0.60;99.90;;;;;;20917524;28;20064;-75
2021/12/19 03:38:16;;;;;;;40.40;15.30;;;0.60;99.90;;;;;;20892589;28;20044;-77
2021/12/19 03:48:17;;;;;;;35.65;15.48;;;0.40;99.90;;;;;;20887457;28;20020;-77
2021/12/19 03:58:19;;;;;;;34.95;14.77;;;0.40;99.90;;;;;;20893868;28;20021;-77
2021/12/19 04:08:20;;;;;;;36.92;15.20;;;0.50;99.90;;;;;;20894839;28;20488;-77
2021/12/19 04:18:21;;;;;;;34.95;13.95;;;0.40;99.90;;;;;;20901948;28;20048;-76
2021/12/19 04:28:22;;;;;;;35.65;13.68;;;0.60;99.90;;;;;;20917093;28;20484;-77
2021/12/19 05:19:31;;;;;;;41.17;15.90;;;0.20;99.90;;;;;;20916983;28;20492;-78
2021/12/19 05:29:33;;;;;;;41.33;15.55;;;0.40;99.90;;;;;;20885555;28;20036;-78
2021/12/19 05:49:53;;;;;;;38.63;15.75;;;0.30;99.90;;;;;;20917249;28;20055;-76
2021/12/19 05:59:54;;;;;;;41.55;15.38;;;0.30;99.90;;;;;;20916296;28;20067;-77
2021/12/19 06:09:56;;;;;;;44.38;16.17;;;0.10;99.90;;;;;;20915508;28;20039;-77
2021/12/19 06:19:56;;;;;;;41.95;15.07;;;0.20;99.90;;;;;;20915016;28;20033;-78
2021/12/19 06:29:57;;;;;;;37.25;15.98;;;0.40;99.90;;;;;;20914312;28;20116;-77
2021/12/19 06:39:58;;;;;;;42.70;16.42;;;0.40;99.90;;;;;;20912427;28;20029;-77
2021/12/19 06:49:59;;;;;;;40.97;15.05;;;0.10;99.90;;;;;;20913886;28;20033;-76
2021/12/19 07:00:00;;;;;;;39.33;14.90;;;0.20;99.90;;;;;;20915513;28;20033;-77
2021/12/19 07:10:02;;;;;;;39.75;15.95;;;0.10;99.90;;;;;;20913804;28;20061;-78
2021/12/19 07:20:05;;;;;;;47.85;16.42;;;0.10;99.90;;;;;;20918402;28;20062;-78
2021/12/19 07:30:06;;;;;;;48.05;16.95;;;0.10;99.90;;;;;;20922294;28;20037;-77
2021/12/19 07:40:16;;;;;;;44.40;16.60;;;0.10;99.90;;;;;;20880041;28;20044;-78
2021/12/19 07:50:17;;;;;;;39.50;14.77;;;0.10;99.90;;;;;;20907778;28;20043;-77
2021/12/19 08:00:20;;;;;;;38.35;13.98;;;0.00;99.90;;;;;;20915808;28;20112;-76
2021/12/19 08:20:22;;;;;;;42.30;16.85;;;0.10;99.90;;;;;;20919687;28;20033;-77
2021/12/19 08:30:24;;;;;;;40.10;15.02;;;0.20;99.90;;;;;;20919524;28;20048;-74
2021/12/19 08:40:27;;;;;;;39.83;14.77;;;0.30;99.90;;;;;;20916927;28;20039;-77
2021/12/19 08:50:28;;;;;;;47.67;16.88;;;0.20;99.90;;;;;;20919005;28;20062;-76
2021/12/19 09:00:30;;;;;;;45.10;17.27;;;0.30;99.90;;;;;;20917061;28;20549;-78
2021/12/19 09:10:32;;;;;;;42.78;16.23;;;0.40;99.90;;;;;;20915890;28;20491;-75
2021/12/19 09:20:33;;;;;;;49.35;16.80;;;0.30;99.90;;;;;;20869113;28;20446;-76
2021/12/19 09:30:34;;;;;;;50.97;18.08;;;0.40;99.90;;;;;;20894860;28;20044;-78
2021/12/19 09:40:38;;;;;;;45.85;17.00;;;0.60;99.90;;;;;;20887852;28;20052;-77
2021/12/19 09:50:39;;;;;;;49.00;18.45;;;0.40;99.90;;;;;;20897840;28;20029;-78
2021/12/19 10:00:40;;;;;;;45.47;17.30;;;0.40;99.90;;;;;;20900517;28;20048;-77
2021/12/19 10:10:56;;;;;;;44.90;16.13;;;0.60;99.90;;;;;;20909309;28;20029;-76
2021/12/19 10:20:59;;;;;;;235.57;93.00;;;0.60;99.90;;;;;;20902142;28;20033;-77
2021/12/19 10:31:02;;;;;;;46.47;18.30;;;0.80;99.90;;;;;;20840219;28;20033;-77
2021/12/19 10:41:15;;;;;;;39.70;15.73;;;0.80;99.90;;;;;;20831628;28;20029;-78
2021/12/19 10:51:19;;;;;;;42.97;16.05;;;0.90;99.90;;;;;;20828697;28;20677;-78
2021/12/19 11:01:28;;;;;;;40.70;15.38;;;1.10;99.90;;;;;;20828412;28;20117;-77
2021/12/19 11:11:41;;;;;;;39.35;15.15;;;0.90;99.90;;;;;;20825520;28;20034;-77
2021/12/19 11:21:43;;;;;;;44.30;15.50;;;0.80;99.90;;;;;;20886627;28;20041;-76
2021/12/19 11:31:49;;;;;;;46.90;16.23;;;1.00;99.90;;;;;;20890784;28;20543;-76
2021/12/19 11:42:15;;;;;;;44.42;16.27;;;1.20;99.90;;;;;;20890508;28;20373;-76
2021/12/19 11:52:23;;;;;;;40.85;16.70;;;1.20;99.90;;;;;;20836613;28;20037;-76
2021/12/19 12:02:27;;;;;;;44.63;15.27;;;1.20;99.90;;;;;;20840606;28;20030;-78
2021/12/19 12:12:35;;;;;;;41.72;15.98;;;1.00;99.90;;;;;;20842467;28;20120;-77
2021/12/19 12:22:39;;;;;;;44.10;16.95;;;0.90;99.90;;;;;;20839853;28;20514;-77
2021/12/19 12:32:41;;;;;;;44.47;17.25;;;0.90;99.90;;;;;;20839473;28;20040;-77
2021/12/19 12:43:02;;;;;;;48.50;18.98;;;0.80;99.90;;;;;;20834998;28;20112;-78
2021/12/19 12:53:03;;;;;;;;;;;0.70;99.90;;;;;;20838263;28;20044;-78
2021/12/19 13:03:28;;;;;;;39.87;15.83;;;0.80;99.90;;;;;;20838008;28;20327;-78
2021/12/19 13:13:30;;;;;;;46.83;15.95;;;0.90;99.90;;;;;;20835174;28;20539;-77
2021/12/19 13:23:31;;;;;;;48.75;16.83;;;0.80;99.90;;;;;;20840982;28;20171;-77
2021/12/19 13:33:34;;;;;;;43.88;16.83;;;0.90;99.90;;;;;;20836982;28;20485;-76
2021/12/19 13:43:37;;;;;;;51.45;19.42;;;0.90;99.90;;;;;;20834936;28;20469;-75
2021/12/19 13:53:40;;;;;;;57.58;19.38;;;0.80;99.90;;;;;;20829030;28;20030;-78
2021/12/19 14:03:46;;;;;;;51.35;18.90;;;0.80;99.90;;;;;;20830627;28;20064;-76
2021/12/19 14:14:23;;;;;;;54.63;19.85;;;0.80;99.90;;;;;;20829266;28;20022;-79
2021/12/19 14:24:45;;;;;;;55.65;18.67;;;0.90;99.90;;;;;;20828317;28;20480;-76
2021/12/19 14:34:53;;;;;;;55.47;19.48;;;0.80;99.90;;;;;;20827668;28;20040;-74
2021/12/19 14:44:57;;;;;;;45.70;17.50;;;1.00;99.90;;;;;;20826047;28;20049;-76
2021/12/19 14:55:12;;;;;;;52.83;20.27;;;0.80;99.90;;;;;;20825102;28;20033;-77
2021/12/19 15:05:13;;;;;;;50.67;19.50;;;0.70;99.90;;;;;;20826681;28;20453;-76
2021/12/19 15:15:15;;;;;;;49.45;19.63;;;0.60;99.90;;;;;;20846108;28;20116;-75
2021/12/19 15:25:16;;;;;;;52.00;19.73;;;0.50;99.90;;;;;;20838612;28;20555;-75
2021/12/19 15:35:17;;;;;;;56.20;20.65;;;0.50;99.90;;;;;;20840090;28;20076;-77
2021/12/19 15:45:18;;;;;;;107.03;32.97;;;0.50;99.90;;;;;;20842991;28;20075;-75
2021/12/19 15:55:19;;;;;;;70.03;24.65;;;0.40;99.90;;;;;;20837514;28;20447;-75
2021/12/19 16:05:22;;;;;;;57.40;21.00;;;0.40;99.90;;;;;;20837083;28;20056;-76
2021/12/19 16:15:23;;;;;;;76.95;24.85;;;0.20;99.90;;;;;;20834087;28;20029;-76
2021/12/19 16:25:30;;;;;;;72.88;28.08;;;0.20;99.90;;;;;;20834756;28;20037;-76
2021/12/19 16:35:32;;;;;;;67.32;22.80;;;0.20;99.90;;;;;;20833722;28;20381;-75
2021/12/19 16:45:34;;;;;;;68.95;26.42;;;0.10;99.90;;;;;;20833831;28;20029;-75
2021/12/19 16:55:37;;;;;;;60.67;22.23;;;0.10;99.90;;;;;;20833233;28;20044;-76
2021/12/19 17:05:38;;;;;;;72.65;24.77;;;0.10;99.90;;;;;;20831308;28;20059;-75
2021/12/19 17:15:39;;;;;;;74.80;23.23;;;0.10;99.90;;;;;;20831417;28;20477;-76
2021/12/19 17:25:41;;;;;;;67.15;22.73;;;0.20;99.90;;;;;;20830739;28;20075;-76
2021/12/19 17:35:42;;;;;;;76.72;22.88;;;0.20;99.90;;;;;;20830404;28;20475;-76
2021/12/19 17:45:43;;;;;;;67.38;24.40;;;0.10;99.90;;;;;;20831090;28;20068;-76
2021/12/19 17:55:44;;;;;;;57.72;22.23;;;0.20;99.90;;;;;;20860085;28;20044;-74
2021/12/19 18:05:53;;;;;;;68.82;21.88;;;0.70;99.90;;;;;;20898326;28;20036;-75
2021/12/19 18:15:55;;;;;;;62.08;22.73;;;0.30;99.90;;;;;;20889889;28;20086;-75
2021/12/19 18:25:56;;;;;;;66.90;22.38;;;0.20;99.90;;;;;;20860028;28;20111;-75
2021/12/19 18:36:12;;;;;;;66.50;23.33;;;0.30;99.90;;;;;;20815053;28;20033;-74
2021/12/19 18:56:33;;;;;;;67.82;24.00;;;0.20;99.90;;;;;;20860250;28;20425;-75
2021/12/19 19:06:33;;;;;;;69.68;23.20;;;0.10;99.90;;;;;;20831712;28;20077;-75
2021/12/19 19:16:35;;;;;;;63.30;21.40;;;0.10;99.90;;;;;;20837485;28;20168;-74
2021/12/19 19:26:45;;;;;;;82.20;24.70;;;0.00;99.90;;;;;;20891213;28;20509;-75
2021/12/19 19:36:49;;;;;;;67.17;23.30;;;0.00;99.90;;;;;;20859505;28;20041;-75
2021/12/19 19:57:10;;;;;;;67.78;23.63;;;0.20;99.90;;;;;;20871669;28;20041;-73
2021/12/19 20:07:12;;;;;;;81.35;23.10;;;0.10;99.90;;;;;;20853204;28;20048;-76
2021/12/19 20:17:13;;;;;;;64.95;21.77;;;0.20;99.90;;;;;;20858214;28;20033;-73
2021/12/19 20:27:14;;;;;;;63.88;23.02;;;0.10;99.90;;;;;;20866933;28;20044;-77
2021/12/19 20:37:15;;;;;;;67.05;21.17;;;0.20;99.90;;;;;;20896173;28;20724;-75
2021/12/19 20:47:16;;;;;;;62.15;21.30;;;0.20;99.90;;;;;;20896459;28;20032;-75
2021/12/19 20:57:17;;;;;;;67.05;22.73;;;0.00;99.90;;;;;;20896400;28;20082;-75
2021/12/19 21:07:18;;;;;;;74.03;23.52;;;-0.30;99.90;;;;;;20894327;28;20029;-76
2021/12/19 21:27:39;;;;;;;61.95;19.85;;;-0.20;99.90;;;;;;20894253;28;20090;-76
2021/12/19 21:48:11;;;;;;;85.05;24.17;;;-0.40;99.90;;;;;;20893138;28;20069;-75
2021/12/19 21:58:12;;;;;;;88.40;25.80;;;-0.50;99.90;;;;;;20891783;28;20060;-75
2021/12/19 22:08:13;;;;;;;62.72;18.75;;;-0.50;99.90;;;;;;20892940;28;20048;-75
2021/12/19 22:18:15;;;;;;;60.45;20.73;;;-0.60;99.90;;;;;;20864794;28;20033;-76
2021/12/19 22:28:16;;;;;;;54.83;17.08;;;-0.90;99.90;;;;;;20864675;28;20033;-76
2021/12/19 22:38:17;;;;;;;57.78;19.33;;;-1.00;99.90;;;;;;20865553;28;20064;-75
2021/12/19 22:48:18;;;;;;;48.42;16.50;;;-1.20;99.90;;;;;;20867685;28;20055;-76
2021/12/19 22:58:19;;;;;;;58.20;17.67;;;-1.40;99.90;;;;;;20864905;28;20036;-75
2021/12/19 23:08:21;;;;;;;85.93;22.92;;;-1.40;99.90;;;;;;20864893;28;20162;-76
2021/12/19 23:18:21;;;;;;;87.85;21.48;;;-1.20;99.90;;;;;;20861508;28;20480;-75
2021/12/19 23:28:22;;;;;;;87.72;22.90;;;-1.10;99.90;;;;;;20866527;28;20025;-75
2021/12/19 23:48:33;;;;;;;73.77;19.70;;;-1.20;99.90;;;;;;20941404;28;20064;-75
2021/12/19 23:58:34;;;;;;;88.50;21.70;;;-1.20;99.90;;;;;;21001101;28;20032;-75
